sensor_id;sensor_type;location;lat;lon;timestamp;pressure;altitude;pressure_sealevel;temperature;humidity
31911;BME280;18457;52.432;16.914;2024-03-17T00:01:20;100778.10;;;6.72;95.67
31911;BME280;18457;52.432;16.914;2024-03-17T00:03:52;100778.80;;;6.75;94.37
31911;BME280;18457;52.432;16.914;2024-03-17T00:06:23;100778.29;;;6.72;93.39
31911;BME280;18457;52.432;16.914;2024-03-17T00:08:55;100777.92;;;6.70;93.12
31911;BME280;18457;52.432;16.914;2024-03-17T00:11:27;100782.43;;;6.64;92.18
31911;BME280;18457;52.432;16.914;2024-03-17T00:13:59;100778.12;;;6.59;91.75
31911;BME280;18457;52.432;16.914;2024-03-17T00:16:30;100780.44;;;6.67;91.02
31911;BME280;18457;52.432;16.914;2024-03-17T00:19:02;100786.02;;;6.61;90.93
31911;BME280;18457;52.432;16.914;2024-03-17T00:21:34;100788.36;;;6.58;90.76
31911;BME280;18457;52.432;16.914;2024-03-17T00:24:06;100789.45;;;6.54;90.47
31911;BME280;18457;52.432;16.914;2024-03-17T00:26:38;100785.88;;;6.44;90.43
31911;BME280;18457;52.432;16.914;2024-03-17T00:29:10;100792.14;;;6.52;90.22
31911;BME280;18457;52.432;16.914;2024-03-17T00:31:42;100796.09;;;6.53;89.55
31911;BME280;18457;52.432;16.914;2024-03-17T00:34:13;100800.58;;;6.49;88.69
31911;BME280;18457;52.432;16.914;2024-03-17T00:36:46;100796.45;;;6.54;88.41
31911;BME280;18457;52.432;16.914;2024-03-17T00:39:18;100800.04;;;6.57;88.08
31911;BME280;18457;52.432;16.914;2024-03-17T00:41:49;100796.80;;;6.62;87.83
31911;BME280;18457;52.432;16.914;2024-03-17T00:44:21;100800.56;;;6.68;87.86
31911;BME280;18457;52.432;16.914;2024-03-17T00:46:53;100806.65;;;6.70;87.43
31911;BME280;18457;52.432;16.914;2024-03-17T00:49:24;100805.02;;;6.71;87.46
31911;BME280;18457;52.432;16.914;2024-03-17T00:51:56;100805.02;;;6.79;87.50
31911;BME280;18457;52.432;16.914;2024-03-17T00:54:27;100810.57;;;6.79;87.55
31911;BME280;18457;52.432;16.914;2024-03-17T00:56:59;100809.13;;;6.81;87.83
31911;BME280;18457;52.432;16.914;2024-03-17T00:59:31;100809.69;;;6.78;87.92
31911;BME280;18457;52.432;16.914;2024-03-17T01:02:04;100812.94;;;6.72;88.32
31911;BME280;18457;52.432;16.914;2024-03-17T01:04:36;100812.74;;;6.72;88.93
31911;BME280;18457;52.432;16.914;2024-03-17T01:07:07;100810.08;;;6.66;88.84
31911;BME280;18457;52.432;16.914;2024-03-17T01:09:40;100807.21;;;6.56;89.06
31911;BME280;18457;52.432;16.914;2024-03-17T01:12:12;100810.09;;;6.57;88.07
31911;BME280;18457;52.432;16.914;2024-03-17T01:14:43;100808.83;;;6.52;87.08
31911;BME280;18457;52.432;16.914;2024-03-17T01:17:15;100812.78;;;6.49;85.71
31911;BME280;18457;52.432;16.914;2024-03-17T01:19:49;100812.07;;;6.51;83.96
31911;BME280;18457;52.432;16.914;2024-03-17T01:22:22;100811.70;;;6.50;82.36
31911;BME280;18457;52.432;16.914;2024-03-17T01:24:54;100815.30;;;6.46;80.45
31911;BME280;18457;52.432;16.914;2024-03-17T01:27:25;100812.61;;;6.52;80.50
31911;BME280;18457;52.432;16.914;2024-03-17T01:29:57;100808.11;;;6.48;79.63
31911;BME280;18457;52.432;16.914;2024-03-17T01:32:29;100806.15;;;6.45;78.40
31911;BME280;18457;52.432;16.914;2024-03-17T01:35:00;100801.48;;;6.42;76.85
31911;BME280;18457;52.432;16.914;2024-03-17T01:37:32;100809.02;;;6.51;75.12
31911;BME280;18457;52.432;16.914;2024-03-17T01:40:05;100805.61;;;6.40;74.54
31911;BME280;18457;52.432;16.914;2024-03-17T01:42:40;100802.20;;;6.48;75.12
31911;BME280;18457;52.432;16.914;2024-03-17T01:45:29;100802.38;;;6.49;74.92
31911;BME280;18457;52.432;16.914;2024-03-17T01:48:04;100802.20;;;6.48;74.49
31911;BME280;18457;52.432;16.914;2024-03-17T01:50:41;100805.25;;;6.45;74.81
31911;BME280;18457;52.432;16.914;2024-03-17T01:53:12;100807.58;;;6.49;75.19
31911;BME280;18457;52.432;16.914;2024-03-17T01:55:45;100804.89;;;6.50;75.42
31911;BME280;18457;52.432;16.914;2024-03-17T01:58:19;100802.36;;;6.52;75.58
31911;BME280;18457;52.432;16.914;2024-03-17T02:00:51;100802.37;;;6.53;76.17
31911;BME280;18457;52.432;16.914;2024-03-17T02:03:23;100801.30;;;6.47;77.03
31911;BME280;18457;52.432;16.914;2024-03-17T02:05:55;100799.70;;;6.46;78.03
31911;BME280;18457;52.432;16.914;2024-03-17T02:08:27;100799.70;;;6.43;79.20
31911;BME280;18457;52.432;16.914;2024-03-17T02:10:59;100801.31;;;6.43;80.43
31911;BME280;18457;52.432;16.914;2024-03-17T02:13:31;100802.01;;;6.50;81.64
31911;BME280;18457;52.432;16.914;2024-03-17T02:16:03;100803.09;;;6.50;82.41
31911;BME280;18457;52.432;16.914;2024-03-17T02:18:35;100805.62;;;6.48;83.29
31911;BME280;18457;52.432;16.914;2024-03-17T02:21:07;100808.13;;;6.40;84.37
31911;BME280;18457;52.432;16.914;2024-03-17T02:23:40;100807.41;;;6.39;85.04
31911;BME280;18457;52.432;16.914;2024-03-17T02:26:12;100808.67;;;6.26;85.40
31911;BME280;18457;52.432;16.914;2024-03-17T02:28:45;100807.42;;;6.18;85.78
31911;BME280;18457;52.432;16.914;2024-03-17T02:31:17;100805.09;;;6.11;85.72
31911;BME280;18457;52.432;16.914;2024-03-17T02:33:48;100803.66;;;6.09;85.42
31911;BME280;18457;52.432;16.914;2024-03-17T02:36:20;100799.35;;;6.13;85.17
31911;BME280;18457;52.432;16.914;2024-03-17T02:38:52;100795.58;;;6.15;84.07
31911;BME280;18457;52.432;16.914;2024-03-17T02:41:44;100790.55;;;6.18;83.36
31911;BME280;18457;52.432;16.914;2024-03-17T02:44:16;100784.09;;;6.25;82.75
31911;BME280;18457;52.432;16.914;2024-03-17T02:46:47;100781.04;;;6.32;81.86
31911;BME280;18457;52.432;16.914;2024-03-17T02:49:19;100778.89;;;6.27;81.78
31911;BME280;18457;52.432;16.914;2024-03-17T02:51:52;100770.09;;;6.34;81.59
31911;BME280;18457;52.432;16.914;2024-03-17T02:54:24;100764.34;;;6.41;81.47
31911;BME280;18457;52.432;16.914;2024-03-17T02:57:06;100761.10;;;6.48;80.78
31911;BME280;18457;52.432;16.914;2024-03-17T02:59:38;100769.54;;;6.46;80.25
31911;BME280;18457;52.432;16.914;2024-03-17T03:02:12;100767.73;;;6.53;80.30
31911;BME280;18457;52.432;16.914;2024-03-17T03:04:46;100773.86;;;6.40;80.00
31911;BME280;18457;52.432;16.914;2024-03-17T03:07:18;100775.30;;;6.25;79.84
31911;BME280;18457;52.432;16.914;2024-03-17T03:09:50;100776.73;;;6.21;80.28
31911;BME280;18457;52.432;16.914;2024-03-17T03:12:22;100776.02;;;6.23;80.01
31911;BME280;18457;52.432;16.914;2024-03-17T03:14:53;100777.64;;;6.16;79.76
31911;BME280;18457;52.432;16.914;2024-03-17T03:17:25;100777.48;;;6.13;79.78
31911;BME280;18457;52.432;16.914;2024-03-17T03:19:57;100785.54;;;6.10;79.47
31911;BME280;18457;52.432;16.914;2024-03-17T03:22:28;100782.30;;;6.06;79.63
31911;BME280;18457;52.432;16.914;2024-03-17T03:25:00;100782.66;;;5.97;79.98
31911;BME280;18457;52.432;16.914;2024-03-17T03:27:31;100780.67;;;5.92;79.86
31911;BME280;18457;52.432;16.914;2024-03-17T03:30:05;100780.33;;;5.89;79.75
31911;BME280;18457;52.432;16.914;2024-03-17T03:32:39;100786.42;;;5.91;80.09
31911;BME280;18457;52.432;16.914;2024-03-17T03:35:10;100778.71;;;5.91;80.23
31911;BME280;18457;52.432;16.914;2024-03-17T03:37:43;100783.02;;;5.93;79.92
31911;BME280;18457;52.432;16.914;2024-03-17T03:40:14;100782.13;;;6.02;79.81
31911;BME280;18457;52.432;16.914;2024-03-17T03:42:47;100778.89;;;5.96;79.74
31911;BME280;18457;52.432;16.914;2024-03-17T03:45:18;100775.84;;;5.99;79.49
31911;BME280;18457;52.432;16.914;2024-03-17T03:47:51;100769.04;;;6.03;79.48
31911;BME280;18457;52.432;16.914;2024-03-17T03:50:22;100772.08;;;6.09;79.27
31911;BME280;18457;52.432;16.914;2024-03-17T03:52:54;100775.13;;;6.03;79.19
31911;BME280;18457;52.432;16.914;2024-03-17T03:55:25;100775.66;;;6.01;79.22
31911;BME280;18457;52.432;16.914;2024-03-17T03:57:57;100774.95;;;5.97;78.58
31911;BME280;18457;52.432;16.914;2024-03-17T04:00:28;100771.00;;;5.90;78.90
31911;BME280;18457;52.432;16.914;2024-03-17T04:03:01;100771.01;;;5.90;79.21
31911;BME280;18457;52.432;16.914;2024-03-17T04:05:33;100777.64;;;5.89;78.93
31911;BME280;18457;52.432;16.914;2024-03-17T04:08:05;100776.92;;;5.91;78.92
31911;BME280;18457;52.432;16.914;2024-03-17T04:10:36;100779.06;;;5.93;78.96
31911;BME280;18457;52.432;16.914;2024-03-17T04:13:08;100778.17;;;5.88;79.21
31911;BME280;18457;52.432;16.914;2024-03-17T04:15:39;100781.40;;;5.90;79.33
31911;BME280;18457;52.432;16.914;2024-03-17T04:18:11;100781.41;;;5.93;79.48
31911;BME280;18457;52.432;16.914;2024-03-17T04:20:42;100780.87;;;5.97;79.49
31911;BME280;18457;52.432;16.914;2024-03-17T04:23:14;100781.59;;;5.98;79.22
31911;BME280;18457;52.432;16.914;2024-03-17T04:25:45;100776.20;;;5.92;79.22
31911;BME280;18457;52.432;16.914;2024-03-17T04:28:16;100776.73;;;5.89;79.68
31911;BME280;18457;52.432;16.914;2024-03-17T04:30:48;100778.17;;;5.87;79.98
31911;BME280;18457;52.432;16.914;2024-03-17T04:33:19;100775.12;;;5.85;80.18
31911;BME280;18457;52.432;16.914;2024-03-17T04:35:51;100779.39;;;5.83;80.26
31911;BME280;18457;52.432;16.914;2024-03-17T04:38:22;100783.15;;;5.83;80.41
31911;BME280;18457;52.432;16.914;2024-03-17T04:40:55;100783.91;;;5.86;80.78
31911;BME280;18457;52.432;16.914;2024-03-17T04:43:34;100782.27;;;5.83;80.64
31911;BME280;18457;52.432;16.914;2024-03-17T04:46:06;100779.38;;;5.79;81.09
31911;BME280;18457;52.432;16.914;2024-03-17T04:48:41;100780.80;;;5.76;81.25
31911;BME280;18457;52.432;16.914;2024-03-17T04:51:17;100780.27;;;5.79;81.52
31911;BME280;18457;52.432;16.914;2024-03-17T04:53:49;100779.41;;;5.84;81.59
31911;BME280;18457;52.432;16.914;2024-03-17T04:56:20;100781.23;;;5.93;81.30
31911;BME280;18457;52.432;16.914;2024-03-17T04:58:51;100792.69;;;5.85;80.97
31911;BME280;18457;52.432;16.914;2024-03-17T05:01:23;100796.09;;;5.85;81.18
31911;BME280;18457;52.432;16.914;2024-03-17T05:03:55;100792.33;;;5.89;81.33
31911;BME280;18457;52.432;16.914;2024-03-17T05:06:26;100800.55;;;5.83;81.10
31911;BME280;18457;52.432;16.914;2024-03-17T05:08:57;100799.50;;;5.84;81.32
31911;BME280;18457;52.432;16.914;2024-03-17T05:11:28;100803.08;;;5.85;81.51
31911;BME280;18457;52.432;16.914;2024-03-17T05:14:00;100808.47;;;5.90;81.31
31911;BME280;18457;52.432;16.914;2024-03-17T05:16:31;100810.62;;;5.90;81.52
31911;BME280;18457;52.432;16.914;2024-03-17T05:19:03;100811.16;;;5.95;81.75
31911;BME280;18457;52.432;16.914;2024-03-17T05:21:34;100814.04;;;5.98;81.65
31911;BME280;18457;52.432;16.914;2024-03-17T05:24:07;100806.68;;;5.97;81.26
31911;BME280;18457;52.432;16.914;2024-03-17T05:26:38;100805.61;;;6.01;81.44
31911;BME280;18457;52.432;16.914;2024-03-17T05:29:10;100804.89;;;5.98;81.28
31911;BME280;18457;52.432;16.914;2024-03-17T05:31:41;100807.40;;;5.93;81.61
31911;BME280;18457;52.432;16.914;2024-03-17T05:34:17;100810.08;;;5.95;81.59
31911;BME280;18457;52.432;16.914;2024-03-17T05:36:49;100826.23;;;5.98;81.62
31911;BME280;18457;52.432;16.914;2024-03-17T05:39:20;100830.91;;;6.06;81.35
31911;BME280;18457;52.432;16.914;2024-03-17T05:41:52;100832.70;;;5.99;81.62
31911;BME280;18457;52.432;16.914;2024-03-17T05:44:24;100838.79;;;5.97;81.52
31911;BME280;18457;52.432;16.914;2024-03-17T05:46:55;100837.36;;;6.02;81.25
31911;BME280;18457;52.432;16.914;2024-03-17T05:49:27;100845.42;;;6.00;81.32
31911;BME280;18457;52.432;16.914;2024-03-17T05:51:59;100839.88;;;6.02;81.64
31911;BME280;18457;52.432;16.914;2024-03-17T05:54:30;100842.75;;;6.05;81.49
31911;BME280;18457;52.432;16.914;2024-03-17T05:57:01;100844.71;;;6.05;81.76
31911;BME280;18457;52.432;16.914;2024-03-17T05:59:34;100854.41;;;6.11;81.58
31911;BME280;18457;52.432;16.914;2024-03-17T06:02:06;100855.48;;;6.20;81.41
31911;BME280;18457;52.432;16.914;2024-03-17T06:04:40;100856.91;;;6.15;81.50
31911;BME280;18457;52.432;16.914;2024-03-17T06:07:11;100862.12;;;6.17;81.76
31911;BME280;18457;52.432;16.914;2024-03-17T06:09:43;100867.50;;;6.16;81.94
31911;BME280;18457;52.432;16.914;2024-03-17T06:12:17;100864.64;;;6.17;81.75
31911;BME280;18457;52.432;16.914;2024-03-17T06:14:48;100873.42;;;6.19;81.82
31911;BME280;18457;52.432;16.914;2024-03-17T06:17:20;100870.73;;;6.14;81.87
31911;BME280;18457;52.432;16.914;2024-03-17T06:19:51;100875.05;;;6.18;82.01
31911;BME280;18457;52.432;16.914;2024-03-17T06:22:22;100874.52;;;6.26;81.94
31911;BME280;18457;52.432;16.914;2024-03-17T06:24:54;100875.05;;;6.29;81.95
31911;BME280;18457;52.432;16.914;2024-03-17T06:27:25;100875.59;;;6.31;81.80
31911;BME280;18457;52.432;16.914;2024-03-17T06:29:57;100874.86;;;6.26;81.82
31911;BME280;18457;52.432;16.914;2024-03-17T06:32:28;100875.59;;;6.30;82.11
31911;BME280;18457;52.432;16.914;2024-03-17T06:35:00;100873.08;;;6.36;82.18
31911;BME280;18457;52.432;16.914;2024-03-17T06:37:32;100879.71;;;6.40;81.83
31911;BME280;18457;52.432;16.914;2024-03-17T06:40:05;100880.45;;;6.38;81.67
31911;BME280;18457;52.432;16.914;2024-03-17T06:42:36;100882.60;;;6.39;81.79
31911;BME280;18457;52.432;16.914;2024-03-17T06:45:08;100885.46;;;6.35;82.18
31911;BME280;18457;52.432;16.914;2024-03-17T06:47:40;100889.42;;;6.34;82.14
31911;BME280;18457;52.432;16.914;2024-03-17T06:50:11;100890.67;;;6.46;82.24
31911;BME280;18457;52.432;16.914;2024-03-17T06:52:43;100884.21;;;6.47;82.14
31911;BME280;18457;52.432;16.914;2024-03-17T06:55:14;100889.95;;;6.50;82.08
31911;BME280;18457;52.432;16.914;2024-03-17T06:57:46;100895.34;;;6.45;82.18
31911;BME280;18457;52.432;16.914;2024-03-17T07:00:18;100896.77;;;6.38;82.17
31911;BME280;18457;52.432;16.914;2024-03-17T07:02:55;100897.13;;;6.45;82.31
31911;BME280;18457;52.432;16.914;2024-03-17T07:05:26;100898.39;;;6.54;82.39
31911;BME280;18457;52.432;16.914;2024-03-17T07:07:59;100896.77;;;6.61;82.20
31911;BME280;18457;52.432;16.914;2024-03-17T07:10:30;100892.45;;;6.69;81.80
31911;BME280;18457;52.432;16.914;2024-03-17T07:13:01;100896.40;;;6.72;81.58
31911;BME280;18457;52.432;16.914;2024-03-17T07:15:33;100905.03;;;6.79;81.16
31911;BME280;18457;52.432;16.914;2024-03-17T07:18:05;100906.65;;;6.71;80.83
31911;BME280;18457;52.432;16.914;2024-03-17T07:20:36;100910.59;;;6.65;80.93
31911;BME280;18457;52.432;16.914;2024-03-17T07:23:08;100919.93;;;6.62;81.19
31911;BME280;18457;52.432;16.914;2024-03-17T07:25:41;100926.58;;;6.68;82.15
31911;BME280;18457;52.432;16.914;2024-03-17T07:28:14;100938.96;;;6.61;85.82
31911;BME280;18457;52.432;16.914;2024-03-17T07:30:49;100940.56;;;6.46;86.69
31911;BME280;18457;52.432;16.914;2024-03-17T07:33:20;100942.89;;;6.36;86.96
31911;BME280;18457;52.432;16.914;2024-03-17T07:35:53;100950.23;;;6.30;87.55
31911;BME280;18457;52.432;16.914;2024-03-17T07:38:28;100953.08;;;6.22;87.94
31911;BME280;18457;52.432;16.914;2024-03-17T07:41:01;100957.76;;;6.29;88.03
31911;BME280;18457;52.432;16.914;2024-03-17T07:43:34;100960.11;;;6.35;87.85
31911;BME280;18457;52.432;16.914;2024-03-17T07:46:07;100960.61;;;6.26;87.01
31911;BME280;18457;52.432;16.914;2024-03-17T07:48:40;100962.23;;;6.30;86.69
31911;BME280;18457;52.432;16.914;2024-03-17T07:51:12;100968.19;;;6.38;86.16
31911;BME280;18457;52.432;16.914;2024-03-17T07:53:45;100973.04;;;6.43;84.85
31911;BME280;18457;52.432;16.914;2024-03-17T07:56:18;100976.07;;;6.30;84.45
31911;BME280;18457;52.432;16.914;2024-03-17T07:58:49;100978.22;;;6.32;83.74
31911;BME280;18457;52.432;16.914;2024-03-17T08:01:21;100967.66;;;6.38;83.66
31911;BME280;18457;52.432;16.914;2024-03-17T08:03:52;100967.66;;;6.46;82.05
31911;BME280;18457;52.432;16.914;2024-03-17T08:06:25;100969.28;;;6.54;80.75
31911;BME280;18457;52.432;16.914;2024-03-17T08:08:57;100970.55;;;6.59;79.55
31911;BME280;18457;52.432;16.914;2024-03-17T08:11:28;100966.08;;;6.64;79.19
31911;BME280;18457;52.432;16.914;2024-03-17T08:14:00;100966.96;;;6.61;76.90
31911;BME280;18457;52.432;16.914;2024-03-17T08:16:32;100964.08;;;6.51;71.87
31911;BME280;18457;52.432;16.914;2024-03-17T08:19:03;100959.25;;;6.61;71.37
31911;BME280;18457;52.432;16.914;2024-03-17T08:21:36;100961.40;;;6.75;70.86
31911;BME280;18457;52.432;16.914;2024-03-17T08:24:08;100964.46;;;6.79;69.46
31911;BME280;18457;52.432;16.914;2024-03-17T08:26:40;100962.66;;;6.78;68.57
31911;BME280;18457;52.432;16.914;2024-03-17T08:29:11;100968.05;;;6.88;68.16
31911;BME280;18457;52.432;16.914;2024-03-17T08:31:43;100966.25;;;6.92;67.84
31911;BME280;18457;52.432;16.914;2024-03-17T08:34:15;100969.66;;;6.90;67.31
31911;BME280;18457;52.432;16.914;2024-03-17T08:36:47;100973.80;;;6.89;66.78
31911;BME280;18457;52.432;16.914;2024-03-17T08:39:18;100973.26;;;6.86;66.82
31911;BME280;18457;52.432;16.914;2024-03-17T08:41:49;100985.30;;;6.86;66.95
31911;BME280;18457;52.432;16.914;2024-03-17T08:44:20;100981.69;;;6.72;67.23
31911;BME280;18457;52.432;16.914;2024-03-17T08:46:52;100981.16;;;6.68;67.82
31911;BME280;18457;52.432;16.914;2024-03-17T08:49:23;100981.52;;;6.78;68.59
31911;BME280;18457;52.432;16.914;2024-03-17T08:51:56;100978.28;;;6.81;69.00
31911;BME280;18457;52.432;16.914;2024-03-17T08:54:27;100997.86;;;6.78;68.91
31911;BME280;18457;52.432;16.914;2024-03-17T08:56:59;100998.56;;;6.68;69.62
31911;BME280;18457;52.432;16.914;2024-03-17T08:59:30;101000.16;;;6.56;70.47
31911;BME280;18457;52.432;16.914;2024-03-17T09:02:02;101004.42;;;6.40;71.79
31911;BME280;18457;52.432;16.914;2024-03-17T09:04:34;101012.16;;;6.43;72.82
31911;BME280;18457;52.432;16.914;2024-03-17T09:07:05;101013.22;;;6.38;71.30
31911;BME280;18457;52.432;16.914;2024-03-17T09:09:37;101014.84;;;6.35;69.92
31911;BME280;18457;52.432;16.914;2024-03-17T09:12:08;101018.61;;;6.40;69.59
31911;BME280;18457;52.432;16.914;2024-03-17T09:14:40;101018.62;;;6.41;69.69
31911;BME280;18457;52.432;16.914;2024-03-17T09:17:12;101014.69;;;6.50;70.00
31911;BME280;18457;52.432;16.914;2024-03-17T09:19:43;101015.08;;;6.62;69.61
31911;BME280;18457;52.432;16.914;2024-03-17T09:22:15;101020.83;;;6.66;67.26
31911;BME280;18457;52.432;16.914;2024-03-17T09:24:47;101021.73;;;6.71;65.91
31911;BME280;18457;52.432;16.914;2024-03-17T09:27:19;101023.52;;;6.77;65.58
31911;BME280;18457;52.432;16.914;2024-03-17T09:29:52;101020.85;;;6.87;64.96
31911;BME280;18457;52.432;16.914;2024-03-17T09:32:25;101028.40;;;6.90;64.58
31911;BME280;18457;52.432;16.914;2024-03-17T09:34:57;101026.77;;;6.82;63.62
31911;BME280;18457;52.432;16.914;2024-03-17T09:37:30;101026.60;;;6.86;62.18
31911;BME280;18457;52.432;16.914;2024-03-17T09:40:02;101023.17;;;6.83;61.66
31911;BME280;18457;52.432;16.914;2024-03-17T09:42:36;101027.85;;;6.79;61.58
31911;BME280;18457;52.432;16.914;2024-03-17T09:45:10;101023.91;;;6.90;61.99
31911;BME280;18457;52.432;16.914;2024-03-17T09:47:42;101025.70;;;6.83;61.26
31911;BME280;18457;52.432;16.914;2024-03-17T09:50:15;101034.48;;;6.80;61.14
31911;BME280;18457;52.432;16.914;2024-03-17T09:52:48;101032.90;;;6.90;61.18
31911;BME280;18457;52.432;16.914;2024-03-17T09:55:20;101033.95;;;6.89;61.31
31911;BME280;18457;52.432;16.914;2024-03-17T09:57:52;101032.52;;;6.77;61.68
31911;BME280;18457;52.432;16.914;2024-03-17T10:00:24;101037.02;;;6.86;62.40
31911;BME280;18457;52.432;16.914;2024-03-17T10:02:55;101033.41;;;6.86;62.22
31911;BME280;18457;52.432;16.914;2024-03-17T10:05:27;101031.81;;;6.90;62.16
31911;BME280;18457;52.432;16.914;2024-03-17T10:07:59;101038.62;;;6.81;61.43
31911;BME280;18457;52.432;16.914;2024-03-17T10:10:30;101032.88;;;6.76;61.39
31911;BME280;18457;52.432;16.914;2024-03-17T10:13:02;101043.46;;;6.71;61.27
31911;BME280;18457;52.432;16.914;2024-03-17T10:15:34;101038.61;;;6.75;61.92
31911;BME280;18457;52.432;16.914;2024-03-17T10:18:21;101040.42;;;6.84;61.94
31911;BME280;18457;52.432;16.914;2024-03-17T10:20:55;101043.12;;;6.82;62.41
31911;BME280;18457;52.432;16.914;2024-03-17T10:23:28;101047.95;;;6.83;62.72
31911;BME280;18457;52.432;16.914;2024-03-17T10:26:00;101048.49;;;6.78;62.93
31911;BME280;18457;52.432;16.914;2024-03-17T10:28:32;101055.27;;;6.51;63.70
31911;BME280;18457;52.432;16.914;2024-03-17T10:31:04;101061.88;;;6.43;64.41
31911;BME280;18457;52.432;16.914;2024-03-17T10:33:39;101054.17;;;6.50;65.03
31911;BME280;18457;52.432;16.914;2024-03-17T10:36:23;101059.91;;;6.48;65.49
31911;BME280;18457;52.432;16.914;2024-03-17T10:38:55;101057.39;;;6.47;66.11
31911;BME280;18457;52.432;16.914;2024-03-17T10:41:31;101062.25;;;6.48;66.07
31911;BME280;18457;52.432;16.914;2024-03-17T10:44:04;101053.62;;;6.44;66.16
31911;BME280;18457;52.432;16.914;2024-03-17T10:46:39;101054.16;;;6.48;66.46
31911;BME280;18457;52.432;16.914;2024-03-17T10:49:22;101059.55;;;6.52;66.84
31911;BME280;18457;52.432;16.914;2024-03-17T10:51:58;101054.56;;;6.62;67.21
31911;BME280;18457;52.432;16.914;2024-03-17T10:54:32;101058.86;;;6.59;66.81
31911;BME280;18457;52.432;16.914;2024-03-17T10:57:18;101060.11;;;6.56;66.85
31911;BME280;18457;52.432;16.914;2024-03-17T10:59:58;101062.11;;;6.63;67.33
31911;BME280;18457;52.432;16.914;2024-03-17T11:02:31;101064.09;;;6.68;67.41
31911;BME280;18457;52.432;16.914;2024-03-17T11:05:05;101067.69;;;6.70;67.35
31911;BME280;18457;52.432;16.914;2024-03-17T11:07:44;101067.11;;;6.52;67.23
31911;BME280;18457;52.432;16.914;2024-03-17T11:10:20;101063.71;;;6.59;66.78
31911;BME280;18457;52.432;16.914;2024-03-17T11:12:54;101067.14;;;6.64;66.16
31911;BME280;18457;52.432;16.914;2024-03-17T11:15:41;101065.70;;;6.63;65.57
31911;BME280;18457;52.432;16.914;2024-03-17T11:18:39;101066.96;;;6.62;65.82
31911;BME280;18457;52.432;16.914;2024-03-17T11:21:24;101071.08;;;6.61;66.01
31911;BME280;18457;52.432;16.914;2024-03-17T11:24:02;101062.27;;;6.57;66.10
31911;BME280;18457;52.432;16.914;2024-03-17T11:26:35;101069.81;;;6.56;66.61
31911;BME280;18457;52.432;16.914;2024-03-17T11:29:27;101073.05;;;6.62;66.73
31911;BME280;18457;52.432;16.914;2024-03-17T11:32:00;101070.75;;;6.72;66.89
31911;BME280;18457;52.432;16.914;2024-03-17T11:35:15;101073.08;;;6.66;67.30
31911;BME280;18457;52.432;16.914;2024-03-17T11:37:47;101071.61;;;6.58;67.66
31911;BME280;18457;52.432;16.914;2024-03-17T11:40:27;101075.35;;;6.51;68.18
31911;BME280;18457;52.432;16.914;2024-03-17T11:43:04;101074.64;;;6.52;69.21
31911;BME280;18457;52.432;16.914;2024-03-17T11:45:37;101075.70;;;6.47;70.14
31911;BME280;18457;52.432;16.914;2024-03-17T11:48:13;101073.88;;;6.41;70.55
31911;BME280;18457;52.432;16.914;2024-03-17T11:50:46;101070.48;;;6.43;70.56
31911;BME280;18457;52.432;16.914;2024-03-17T11:53:19;101064.96;;;6.56;70.75
31911;BME280;18457;52.432;16.914;2024-03-17T11:55:51;101075.23;;;6.67;70.48
31911;BME280;18457;52.432;16.914;2024-03-17T11:58:23;101068.16;;;6.48;69.66
31911;BME280;18457;52.432;16.914;2024-03-17T12:00:55;101064.20;;;6.42;69.63
31911;BME280;18457;52.432;16.914;2024-03-17T12:03:27;101063.48;;;6.43;68.74
31911;BME280;18457;52.432;16.914;2024-03-17T12:06:01;101064.59;;;6.52;67.89
31911;BME280;18457;52.432;16.914;2024-03-17T12:08:36;101066.39;;;6.54;67.85
31911;BME280;18457;52.432;16.914;2024-03-17T12:11:18;101072.33;;;6.59;67.71
31911;BME280;18457;52.432;16.914;2024-03-17T12:13:50;101066.73;;;6.45;67.65
31911;BME280;18457;52.432;16.914;2024-03-17T12:16:22;101075.17;;;6.50;67.67
31911;BME280;18457;52.432;16.914;2024-03-17T12:18:55;101075.49;;;6.38;67.38
31911;BME280;18457;52.432;16.914;2024-03-17T12:21:36;101074.94;;;6.34;67.60
31911;BME280;18457;52.432;16.914;2024-03-17T12:24:18;101077.80;;;6.32;67.76
31911;BME280;18457;52.432;16.914;2024-03-17T12:26:51;101076.91;;;6.34;68.16
31911;BME280;18457;52.432;16.914;2024-03-17T12:29:28;101082.64;;;6.29;68.99
31911;BME280;18457;52.432;16.914;2024-03-17T12:32:04;101082.40;;;6.17;71.47
31911;BME280;18457;52.432;16.914;2024-03-17T12:34:36;101086.83;;;6.08;74.25
31911;BME280;18457;52.432;16.914;2024-03-17T12:37:11;101088.43;;;6.03;75.21
31911;BME280;18457;52.432;16.914;2024-03-17T12:39:47;101093.40;;;5.95;76.01
31911;BME280;18457;52.432;16.914;2024-03-17T12:42:24;101089.83;;;5.97;76.17
31911;BME280;18457;52.432;16.914;2024-03-17T12:44:57;101093.42;;;5.99;75.96
31911;BME280;18457;52.432;16.914;2024-03-17T12:47:31;101092.91;;;6.01;75.81
31911;BME280;18457;52.432;16.914;2024-03-17T12:50:12;101090.71;;;5.96;74.85
31911;BME280;18457;52.432;16.914;2024-03-17T12:52:53;101088.48;;;5.84;74.31
31911;BME280;18457;52.432;16.914;2024-03-17T12:55:25;101091.59;;;5.91;73.55
31911;BME280;18457;52.432;16.914;2024-03-17T12:58:15;101092.58;;;6.05;72.85
31911;BME280;18457;52.432;16.914;2024-03-17T13:01:05;101086.80;;;5.99;71.48
31911;BME280;18457;52.432;16.914;2024-03-17T13:03:37;101085.05;;;6.09;70.90
31911;BME280;18457;52.432;16.914;2024-03-17T13:06:23;101086.56;;;6.25;70.48
31911;BME280;18457;52.432;16.914;2024-03-17T13:08:55;101086.19;;;6.23;70.06
31911;BME280;18457;52.432;16.914;2024-03-17T13:11:26;101090.33;;;6.23;69.92
31911;BME280;18457;52.432;16.914;2024-03-17T13:13:59;101090.31;;;6.24;69.63
31911;BME280;18457;52.432;16.914;2024-03-17T13:16:31;101099.39;;;6.06;70.62
31911;BME280;18457;52.432;16.914;2024-03-17T13:19:02;101101.35;;;6.02;71.66
31911;BME280;18457;52.432;16.914;2024-03-17T13:21:33;101098.42;;;5.96;71.62